sensor_id;sensor_type;location;lat;lon;timestamp;temperature;humidity
37702;DHT22;23548;51.196;6.838;2023-12-28T00:01:12;10.00;99.90
37702;DHT22;23548;51.196;6.838;2023-12-28T00:03:38;10.00;99.90
37702;DHT22;23548;51.196;6.838;2023-12-28T00:06:06;10.00;99.90
37702;DHT22;23548;51.196;6.838;2023-12-28T00:08:32;10.10;99.90
37702;DHT22;23548;51.196;6.838;2023-12-28T00:10:58;10.10;99.90
37702;DHT22;23548;51.196;6.838;2023-12-28T00:13:24;10.20;99.90
37702;DHT22;23548;51.196;6.838;2023-12-28T00:15:49;10.30;99.90
37702;DHT22;23548;51.196;6.838;2023-12-28T00:18:15;10.30;99.90
37702;DHT22;23548;51.196;6.838;2023-12-28T00:20:41;10.30;99.90
37702;DHT22;23548;51.196;6.838;2023-12-28T00:23:07;10.40;99.90
37702;DHT22;23548;51.196;6.838;2023-12-28T00:25:32;10.50;99.90
37702;DHT22;23548;51.196;6.838;2023-12-28T00:27:58;10.50;99.90
37702;DHT22;23548;51.196;6.838;2023-12-28T00:30:24;10.50;99.90
37702;DHT22;23548;51.196;6.838;2023-12-28T00:32:50;10.50;99.90
37702;DHT22;23548;51.196;6.838;2023-12-28T00:35:15;10.50;99.90
37702;DHT22;23548;51.196;6.838;2023-12-28T00:37:41;10.40;99.90
37702;DHT22;23548;51.196;6.838;2023-12-28T00:40:07;10.40;99.90
37702;DHT22;23548;51.196;6.838;2023-12-28T00:42:33;10.30;99.90
37702;DHT22;23548;51.196;6.838;2023-12-28T00:44:58;10.40;99.90
37702;DHT22;23548;51.196;6.838;2023-12-28T00:47:25;10.30;99.90
37702;DHT22;23548;51.196;6.838;2023-12-28T00:49:51;10.30;99.90
37702;DHT22;23548;51.196;6.838;2023-12-28T00:52:16;10.20;99.90
37702;DHT22;23548;51.196;6.838;2023-12-28T00:54:42;10.20;99.90
37702;DHT22;23548;51.196;6.838;2023-12-28T00:57:08;10.20;99.90
37702;DHT22;23548;51.196;6.838;2023-12-28T00:59:34;10.20;99.90
37702;DHT22;23548;51.196;6.838;2023-12-28T01:01:59;10.20;99.90
37702;DHT22;23548;51.196;6.838;2023-12-28T01:04:25;10.10;99.90
37702;DHT22;23548;51.196;6.838;2023-12-28T01:06:52;10.10;99.90
37702;DHT22;23548;51.196;6.838;2023-12-28T01:09:18;10.00;99.90
37702;DHT22;23548;51.196;6.838;2023-12-28T01:11:44;10.10;99.90
37702;DHT22;23548;51.196;6.838;2023-12-28T01:14:10;10.00;99.90
37702;DHT22;23548;51.196;6.838;2023-12-28T01:16:36;10.00;99.90
37702;DHT22;23548;51.196;6.838;2023-12-28T01:19:05;10.00;99.90
37702;DHT22;23548;51.196;6.838;2023-12-28T01:21:31;10.00;99.90
37702;DHT22;23548;51.196;6.838;2023-12-28T01:23:56;10.00;99.90
37702;DHT22;23548;51.196;6.838;2023-12-28T01:26:22;9.90;99.90
37702;DHT22;23548;51.196;6.838;2023-12-28T01:28:48;10.00;99.90
37702;DHT22;23548;51.196;6.838;2023-12-28T01:31:14;9.90;99.90
37702;DHT22;23548;51.196;6.838;2023-12-28T01:33:39;10.00;99.90
37702;DHT22;23548;51.196;6.838;2023-12-28T01:36:34;9.90;99.90
37702;DHT22;23548;51.196;6.838;2023-12-28T01:39:00;9.90;99.90
37702;DHT22;23548;51.196;6.838;2023-12-28T01:41:26;9.90;99.90
37702;DHT22;23548;51.196;6.838;2023-12-28T01:43:52;9.90;99.90
37702;DHT22;23548;51.196;6.838;2023-12-28T01:46:19;10.00;99.90
37702;DHT22;23548;51.196;6.838;2023-12-28T01:48:47;10.00;99.90
37702;DHT22;23548;51.196;6.838;2023-12-28T01:51:15;10.00;99.90
37702;DHT22;23548;51.196;6.838;2023-12-28T01:53:42;10.00;99.90
37702;DHT22;23548;51.196;6.838;2023-12-28T01:56:08;10.00;99.90
37702;DHT22;23548;51.196;6.838;2023-12-28T01:58:35;10.00;99.90
37702;DHT22;23548;51.196;6.838;2023-12-28T02:01:02;10.00;99.90
37702;DHT22;23548;51.196;6.838;2023-12-28T02:03:28;10.00;99.90
37702;DHT22;23548;51.196;6.838;2023-12-28T02:05:55;10.00;99.90
37702;DHT22;23548;51.196;6.838;2023-12-28T02:08:21;10.00;99.90
37702;DHT22;23548;51.196;6.838;2023-12-28T02:10:47;10.00;99.90
37702;DHT22;23548;51.196;6.838;2023-12-28T02:13:13;10.10;99.90
37702;DHT22;23548;51.196;6.838;2023-12-28T02:15:39;10.00;99.90
37702;DHT22;23548;51.196;6.838;2023-12-28T02:18:12;10.00;99.90
37702;DHT22;23548;51.196;6.838;2023-12-28T02:20:39;10.00;99.90
37702;DHT22;23548;51.196;6.838;2023-12-28T02:23:06;10.10;99.90
37702;DHT22;23548;51.196;6.838;2023-12-28T02:25:33;10.10;99.90
37702;DHT22;23548;51.196;6.838;2023-12-28T02:27:59;10.10;99.90
37702;DHT22;23548;51.196;6.838;2023-12-28T02:30:25;10.10;99.90
37702;DHT22;23548;51.196;6.838;2023-12-28T02:35:25;10.10;99.90
37702;DHT22;23548;51.196;6.838;2023-12-28T02:37:58;10.10;99.90
37702;DHT22;23548;51.196;6.838;2023-12-28T02:40:24;10.10;99.90
37702;DHT22;23548;51.196;6.838;2023-12-28T02:42:51;10.10;99.90
37702;DHT22;23548;51.196;6.838;2023-12-28T02:45:18;10.10;99.90
37702;DHT22;23548;51.196;6.838;2023-12-28T02:47:44;10.10;99.90
37702;DHT22;23548;51.196;6.838;2023-12-28T02:53:31;10.10;99.90
37702;DHT22;23548;51.196;6.838;2023-12-28T02:55:57;10.10;99.90
37702;DHT22;23548;51.196;6.838;2023-12-28T02:58:23;10.10;99.90
37702;DHT22;23548;51.196;6.838;2023-12-28T03:00:48;10.10;99.90
37702;DHT22;23548;51.196;6.838;2023-12-28T03:03:14;10.10;99.90
37702;DHT22;23548;51.196;6.838;2023-12-28T03:05:40;10.10;99.90
37702;DHT22;23548;51.196;6.838;2023-12-28T03:08:06;10.10;99.90
37702;DHT22;23548;51.196;6.838;2023-12-28T03:10:32;10.20;99.90
37702;DHT22;23548;51.196;6.838;2023-12-28T03:12:58;10.20;99.90
37702;DHT22;23548;51.196;6.838;2023-12-28T03:15:24;10.20;99.90
37702;DHT22;23548;51.196;6.838;2023-12-28T03:17:50;10.10;99.90
37702;DHT22;23548;51.196;6.838;2023-12-28T03:20:15;10.10;99.90
37702;DHT22;23548;51.196;6.838;2023-12-28T03:22:41;10.20;99.90
37702;DHT22;23548;51.196;6.838;2023-12-28T03:25:07;10.20;99.90
37702;DHT22;23548;51.196;6.838;2023-12-28T03:27:33;10.20;99.90
37702;DHT22;23548;51.196;6.838;2023-12-28T03:29:59;10.20;99.90
37702;DHT22;23548;51.196;6.838;2023-12-28T03:32:25;10.20;99.90
37702;DHT22;23548;51.196;6.838;2023-12-28T03:34:50;10.20;99.90
37702;DHT22;23548;51.196;6.838;2023-12-28T03:37:16;10.30;99.90
37702;DHT22;23548;51.196;6.838;2023-12-28T03:39:42;10.30;99.90
37702;DHT22;23548;51.196;6.838;2023-12-28T03:42:08;10.20;99.90
37702;DHT22;23548;51.196;6.838;2023-12-28T03:44:33;10.30;99.90
37702;DHT22;23548;51.196;6.838;2023-12-28T03:46:59;10.30;99.90
37702;DHT22;23548;51.196;6.838;2023-12-28T03:49:25;10.30;99.90
37702;DHT22;23548;51.196;6.838;2023-12-28T03:51:51;10.30;99.90
37702;DHT22;23548;51.196;6.838;2023-12-28T03:54:18;10.30;99.90
37702;DHT22;23548;51.196;6.838;2023-12-28T03:56:43;10.30;99.90
37702;DHT22;23548;51.196;6.838;2023-12-28T03:59:10;10.30;99.90
37702;DHT22;23548;51.196;6.838;2023-12-28T04:01:36;10.30;99.90
37702;DHT22;23548;51.196;6.838;2023-12-28T04:04:02;10.30;99.90
37702;DHT22;23548;51.196;6.838;2023-12-28T04:06:28;10.30;99.90
37702;DHT22;23548;51.196;6.838;2023-12-28T04:08:54;10.30;99.90
37702;DHT22;23548;51.196;6.838;2023-12-28T04:11:19;10.30;99.90
37702;DHT22;23548;51.196;6.838;2023-12-28T04:13:45;10.30;99.90
37702;DHT22;23548;51.196;6.838;2023-12-28T04:16:15;10.30;99.90
37702;DHT22;23548;51.196;6.838;2023-12-28T04:18:44;10.30;99.90
37702;DHT22;23548;51.196;6.838;2023-12-28T04:21:13;10.30;99.90
37702;DHT22;23548;51.196;6.838;2023-12-28T04:23:39;10.30;99.90
37702;DHT22;23548;51.196;6.838;2023-12-28T04:26:06;10.30;99.90
37702;DHT22;23548;51.196;6.838;2023-12-28T04:28:31;10.30;99.90
37702;DHT22;23548;51.196;6.838;2023-12-28T04:31:02;10.30;99.90
37702;DHT22;23548;51.196;6.838;2023-12-28T04:33:28;10.30;99.90
37702;DHT22;23548;51.196;6.838;2023-12-28T04:35:53;10.30;99.90
37702;DHT22;23548;51.196;6.838;2023-12-28T04:38:19;10.20;99.90
37702;DHT22;23548;51.196;6.838;2023-12-28T04:40:45;10.30;99.90
37702;DHT22;23548;51.196;6.838;2023-12-28T04:43:10;10.30;99.90
37702;DHT22;23548;51.196;6.838;2023-12-28T04:45:36;10.30;99.90
37702;DHT22;23548;51.196;6.838;2023-12-28T04:48:03;10.30;99.90
37702;DHT22;23548;51.196;6.838;2023-12-28T04:50:29;10.30;99.90
37702;DHT22;23548;51.196;6.838;2023-12-28T04:52:55;10.30;99.90
37702;DHT22;23548;51.196;6.838;2023-12-28T04:55:21;10.30;99.90
37702;DHT22;23548;51.196;6.838;2023-12-28T04:57:46;10.30;99.90
37702;DHT22;23548;51.196;6.838;2023-12-28T05:00:12;10.30;99.90
37702;DHT22;23548;51.196;6.838;2023-12-28T05:02:38;10.30;99.90
37702;DHT22;23548;51.196;6.838;2023-12-28T05:05:04;10.30;99.90
37702;DHT22;23548;51.196;6.838;2023-12-28T05:07:30;10.30;99.90
37702;DHT22;23548;51.196;6.838;2023-12-28T05:09:55;10.30;99.90
37702;DHT22;23548;51.196;6.838;2023-12-28T05:12:21;10.30;99.90
37702;DHT22;23548;51.196;6.838;2023-12-28T05:14:47;10.20;99.90
37702;DHT22;23548;51.196;6.838;2023-12-28T05:17:12;10.20;99.90
37702;DHT22;23548;51.196;6.838;2023-12-28T05:19:38;10.20;99.90
37702;DHT22;23548;51.196;6.838;2023-12-28T05:22:04;10.20;99.90
37702;DHT22;23548;51.196;6.838;2023-12-28T05:24:32;10.30;99.90
37702;DHT22;23548;51.196;6.838;2023-12-28T05:26:58;10.20;99.90
37702;DHT22;23548;51.196;6.838;2023-12-28T05:29:24;10.20;99.90
37702;DHT22;23548;51.196;6.838;2023-12-28T05:31:49;10.20;99.90
37702;DHT22;23548;51.196;6.838;2023-12-28T05:34:15;10.20;99.90
37702;DHT22;23548;51.196;6.838;2023-12-28T05:36:41;10.20;99.90
37702;DHT22;23548;51.196;6.838;2023-12-28T05:39:07;10.20;99.90
37702;DHT22;23548;51.196;6.838;2023-12-28T05:41:35;10.20;99.90
37702;DHT22;23548;51.196;6.838;2023-12-28T05:44:00;10.20;99.90
37702;DHT22;23548;51.196;6.838;2023-12-28T05:46:26;10.20;99.90
37702;DHT22;23548;51.196;6.838;2023-12-28T05:48:52;10.20;99.90
37702;DHT22;23548;51.196;6.838;2023-12-28T05:51:18;10.20;99.90
37702;DHT22;23548;51.196;6.838;2023-12-28T05:53:44;10.20;99.90
37702;DHT22;23548;51.196;6.838;2023-12-28T05:56:09;10.30;99.90
37702;DHT22;23548;51.196;6.838;2023-12-28T05:58:35;10.30;99.90
37702;DHT22;23548;51.196;6.838;2023-12-28T06:01:02;10.20;99.90
37702;DHT22;23548;51.196;6.838;2023-12-28T06:03:30;10.30;99.90
37702;DHT22;23548;51.196;6.838;2023-12-28T06:05:56;10.30;99.90
37702;DHT22;23548;51.196;6.838;2023-12-28T06:08:22;10.30;99.90
37702;DHT22;23548;51.196;6.838;2023-12-28T06:10:48;10.30;99.90
37702;DHT22;23548;51.196;6.838;2023-12-28T06:13:14;10.40;99.90
37702;DHT22;23548;51.196;6.838;2023-12-28T06:15:40;10.40;99.90
37702;DHT22;23548;51.196;6.838;2023-12-28T06:18:06;10.30;99.90
37702;DHT22;23548;51.196;6.838;2023-12-28T06:20:32;10.30;99.90
37702;DHT22;23548;51.196;6.838;2023-12-28T06:22:59;10.30;99.90
37702;DHT22;23548;51.196;6.838;2023-12-28T06:25:24;10.30;99.90
37702;DHT22;23548;51.196;6.838;2023-12-28T06:27:50;10.30;99.90
37702;DHT22;23548;51.196;6.838;2023-12-28T06:30:16;10.30;99.90
37702;DHT22;23548;51.196;6.838;2023-12-28T06:32:42;10.30;99.90
37702;DHT22;23548;51.196;6.838;2023-12-28T06:35:08;10.30;99.90
37702;DHT22;23548;51.196;6.838;2023-12-28T06:37:34;10.10;99.90
37702;DHT22;23548;51.196;6.838;2023-12-28T06:39:59;10.30;99.90
37702;DHT22;23548;51.196;6.838;2023-12-28T06:42:25;10.30;99.90
37702;DHT22;23548;51.196;6.838;2023-12-28T06:44:51;10.30;99.90
37702;DHT22;23548;51.196;6.838;2023-12-28T06:47:16;10.30;99.90
37702;DHT22;23548;51.196;6.838;2023-12-28T06:49:42;10.30;99.90
37702;DHT22;23548;51.196;6.838;2023-12-28T06:52:08;10.40;99.90
37702;DHT22;23548;51.196;6.838;2023-12-28T06:54:33;10.40;99.90
37702;DHT22;23548;51.196;6.838;2023-12-28T06:56:59;10.40;99.90
37702;DHT22;23548;51.196;6.838;2023-12-28T06:59:25;10.50;99.90
37702;DHT22;23548;51.196;6.838;2023-12-28T07:01:50;10.60;99.90
37702;DHT22;23548;51.196;6.838;2023-12-28T07:04:16;10.60;99.90
37702;DHT22;23548;51.196;6.838;2023-12-28T07:06:42;10.60;99.90
37702;DHT22;23548;51.196;6.838;2023-12-28T07:09:08;10.60;99.90
37702;DHT22;23548;51.196;6.838;2023-12-28T07:11:34;10.60;99.90
37702;DHT22;23548;51.196;6.838;2023-12-28T07:13:59;10.60;99.90
37702;DHT22;23548;51.196;6.838;2023-12-28T07:16:25;10.60;99.90
37702;DHT22;23548;51.196;6.838;2023-12-28T07:18:52;10.60;99.90
37702;DHT22;23548;51.196;6.838;2023-12-28T07:21:18;10.60;99.90
37702;DHT22;23548;51.196;6.838;2023-12-28T07:23:43;10.60;99.90
37702;DHT22;23548;51.196;6.838;2023-12-28T07:26:15;10.60;99.90
37702;DHT22;23548;51.196;6.838;2023-12-28T07:28:40;10.60;99.90
37702;DHT22;23548;51.196;6.838;2023-12-28T07:31:09;10.60;99.90
37702;DHT22;23548;51.196;6.838;2023-12-28T07:33:35;10.60;99.90
37702;DHT22;23548;51.196;6.838;2023-12-28T07:36:00;10.60;99.90
37702;DHT22;23548;51.196;6.838;2023-12-28T07:38:28;10.60;99.90
37702;DHT22;23548;51.196;6.838;2023-12-28T07:40:53;10.60;99.90
37702;DHT22;23548;51.196;6.838;2023-12-28T07:43:19;10.60;99.90
37702;DHT22;23548;51.196;6.838;2023-12-28T07:45:45;10.70;99.90
37702;DHT22;23548;51.196;6.838;2023-12-28T07:48:11;10.70;99.90
37702;DHT22;23548;51.196;6.838;2023-12-28T07:50:37;10.60;99.90
37702;DHT22;23548;51.196;6.838;2023-12-28T07:53:02;10.60;99.90
37702;DHT22;23548;51.196;6.838;2023-12-28T07:55:28;10.50;99.90
37702;DHT22;23548;51.196;6.838;2023-12-28T07:57:54;10.60;99.90
37702;DHT22;23548;51.196;6.838;2023-12-28T08:00:20;10.50;99.90
37702;DHT22;23548;51.196;6.838;2023-12-28T08:02:46;10.50;99.90
37702;DHT22;23548;51.196;6.838;2023-12-28T08:05:12;10.40;99.90
37702;DHT22;23548;51.196;6.838;2023-12-28T08:07:38;10.40;99.90
37702;DHT22;23548;51.196;6.838;2023-12-28T08:10:04;10.40;99.90
37702;DHT22;23548;51.196;6.838;2023-12-28T08:12:31;10.40;99.90
37702;DHT22;23548;51.196;6.838;2023-12-28T08:14:57;10.40;99.90
37702;DHT22;23548;51.196;6.838;2023-12-28T08:17:23;10.40;99.90
37702;DHT22;23548;51.196;6.838;2023-12-28T08:19:48;10.40;99.90
37702;DHT22;23548;51.196;6.838;2023-12-28T08:22:14;10.40;99.90
37702;DHT22;23548;51.196;6.838;2023-12-28T08:24:40;10.40;99.90
37702;DHT22;23548;51.196;6.838;2023-12-28T08:27:05;10.40;99.90
37702;DHT22;23548;51.196;6.838;2023-12-28T08:29:31;10.40;99.90
37702;DHT22;23548;51.196;6.838;2023-12-28T08:31:57;10.50;99.90
37702;DHT22;23548;51.196;6.838;2023-12-28T08:34:23;10.40;99.90
37702;DHT22;23548;51.196;6.838;2023-12-28T08:36:48;10.40;99.90
37702;DHT22;23548;51.196;6.838;2023-12-28T08:39:16;10.40;99.90
37702;DHT22;23548;51.196;6.838;2023-12-28T08:41:41;10.50;99.90
37702;DHT22;23548;51.196;6.838;2023-12-28T08:44:07;10.50;99.90
37702;DHT22;23548;51.196;6.838;2023-12-28T08:46:33;10.50;99.90
37702;DHT22;23548;51.196;6.838;2023-12-28T08:48:58;10.60;99.90
37702;DHT22;23548;51.196;6.838;2023-12-28T08:51:24;10.60;99.90
37702;DHT22;23548;51.196;6.838;2023-12-28T08:53:50;10.50;99.90
37702;DHT22;23548;51.196;6.838;2023-12-28T08:56:18;10.60;99.90
37702;DHT22;23548;51.196;6.838;2023-12-28T08:58:45;10.60;99.90
37702;DHT22;23548;51.196;6.838;2023-12-28T09:01:23;10.60;99.90
37702;DHT22;23548;51.196;6.838;2023-12-28T09:03:51;10.70;99.90
37702;DHT22;23548;51.196;6.838;2023-12-28T09:06:18;10.70;99.90
37702;DHT22;23548;51.196;6.838;2023-12-28T09:08:47;10.70;99.90
37702;DHT22;23548;51.196;6.838;2023-12-28T09:11:14;10.70;99.90
37702;DHT22;23548;51.196;6.838;2023-12-28T09:13:40;10.80;99.90
37702;DHT22;23548;51.196;6.838;2023-12-28T09:16:12;10.80;99.90
37702;DHT22;23548;51.196;6.838;2023-12-28T09:18:38;10.80;99.90
37702;DHT22;23548;51.196;6.838;2023-12-28T09:21:05;10.80;99.90
37702;DHT22;23548;51.196;6.838;2023-12-28T09:23:32;10.80;99.90
37702;DHT22;23548;51.196;6.838;2023-12-28T09:26:01;10.80;99.90
37702;DHT22;23548;51.196;6.838;2023-12-28T09:28:29;10.90;99.90
37702;DHT22;23548;51.196;6.838;2023-12-28T09:30:54;10.90;99.90
37702;DHT22;23548;51.196;6.838;2023-12-28T09:33:20;10.90;99.90
37702;DHT22;23548;51.196;6.838;2023-12-28T09:35:47;10.90;99.90
37702;DHT22;23548;51.196;6.838;2023-12-28T09:38:13;11.00;99.90
37702;DHT22;23548;51.196;6.838;2023-12-28T09:40:41;11.00;99.90
37702;DHT22;23548;51.196;6.838;2023-12-28T09:43:23;11.10;99.90
37702;DHT22;23548;51.196;6.838;2023-12-28T09:45:53;11.10;99.90
37702;DHT22;23548;51.196;6.838;2023-12-28T09:48:20;11.30;99.90
37702;DHT22;23548;51.196;6.838;2023-12-28T09:50:54;11.30;99.90
37702;DHT22;23548;51.196;6.838;2023-12-28T09:53:24;11.30;99.90
37702;DHT22;23548;51.196;6.838;2023-12-28T09:55:50;11.40;99.90
37702;DHT22;23548;51.196;6.838;2023-12-28T09:58:20;11.20;99.90
37702;DHT22;23548;51.196;6.838;2023-12-28T10:00:48;11.20;99.90
37702;DHT22;23548;51.196;6.838;2023-12-28T10:03:14;11.20;99.90
37702;DHT22;23548;51.196;6.838;2023-12-28T10:05:44;11.20;99.90
37702;DHT22;23548;51.196;6.838;2023-12-28T10:08:15;11.20;99.90
37702;DHT22;23548;51.196;6.838;2023-12-28T10:10:41;11.10;99.90
37702;DHT22;23548;51.196;6.838;2023-12-28T10:13:08;11.10;99.90
37702;DHT22;23548;51.196;6.838;2023-12-28T10:15:35;11.20;99.90
37702;DHT22;23548;51.196;6.838;2023-12-28T10:18:01;11.30;99.90
37702;DHT22;23548;51.196;6.838;2023-12-28T10:20:28;11.40;99.90
37702;DHT22;23548;51.196;6.838;2023-12-28T10:22:55;11.50;99.90
37702;DHT22;23548;51.196;6.838;2023-12-28T10:25:21;11.60;99.90
37702;DHT22;23548;51.196;6.838;2023-12-28T10:27:50;11.70;99.90
37702;DHT22;23548;51.196;6.838;2023-12-28T10:30:17;11.70;99.90
37702;DHT22;23548;51.196;6.838;2023-12-28T10:32:46;11.70;99.90
37702;DHT22;23548;51.196;6.838;2023-12-28T10:35:12;11.90;99.90
37702;DHT22;23548;51.196;6.838;2023-12-28T10:37:42;12.00;99.90
37702;DHT22;23548;51.196;6.838;2023-12-28T10:40:12;12.20;99.90
37702;DHT22;23548;51.196;6.838;2023-12-28T10:42:51;12.10;99.90
37702;DHT22;23548;51.196;6.838;2023-12-28T10:45:18;12.10;99.90
37702;DHT22;23548;51.196;6.838;2023-12-28T10:48:05;12.30;99.90
37702;DHT22;23548;51.196;6.838;2023-12-28T10:50:49;12.30;99.90
37702;DHT22;23548;51.196;6.838;2023-12-28T10:55:50;12.20;99.90
37702;DHT22;23548;51.196;6.838;2023-12-28T10:58:24;12.00;99.90
37702;DHT22;23548;51.196;6.838;2023-12-28T11:00:59;12.00;99.90
37702;DHT22;23548;51.196;6.838;2023-12-28T11:03:34;12.10;99.90
37702;DHT22;23548;51.196;6.838;2023-12-28T11:06:04;12.20;99.90
37702;DHT22;23548;51.196;6.838;2023-12-28T11:08:32;12.20;99.90
37702;DHT22;23548;51.196;6.838;2023-12-28T11:11:00;12.20;99.90
37702;DHT22;23548;51.196;6.838;2023-12-28T11:13:29;12.30;99.90
37702;DHT22;23548;51.196;6.838;2023-12-28T11:15:56;12.40;99.90
37702;DHT22;23548;51.196;6.838;2023-12-28T11:18:23;12.30;99.90
37702;DHT22;23548;51.196;6.838;2023-12-28T11:20:50;12.40;99.90
37702;DHT22;23548;51.196;6.838;2023-12-28T11:23:16;12.50;99.90
37702;DHT22;23548;51.196;6.838;2023-12-28T11:25:42;12.60;99.90
37702;DHT22;23548;51.196;6.838;2023-12-28T11:28:10;12.50;99.90
37702;DHT22;23548;51.196;6.838;2023-12-28T11:30:36;12.40;99.90
37702;DHT22;23548;51.196;6.838;2023-12-28T11:33:04;12.30;99.90
37702;DHT22;23548;51.196;6.838;2023-12-28T11:35:35;12.20;99.90
37702;DHT22;23548;51.196;6.838;2023-12-28T11:38:03;12.20;99.90
37702;DHT22;23548;51.196;6.838;2023-12-28T11:40:42;12.20;99.90
37702;DHT22;23548;51.196;6.838;2023-12-28T11:43:20;12.30;99.90
37702;DHT22;23548;51.196;6.838;2023-12-28T11:45:56;12.30;99.90
37702;DHT22;23548;51.196;6.838;2023-12-28T11:48:27;12.30;99.90
37702;DHT22;23548;51.196;6.838;2023-12-28T11:50:58;12.40;99.90
37702;DHT22;23548;51.196;6.838;2023-12-28T11:53:25;12.50;99.90
37702;DHT22;23548;51.196;6.838;2023-12-28T11:55:51;12.70;99.90
37702;DHT22;23548;51.196;6.838;2023-12-28T11:58:18;12.70;99.90
37702;DHT22;23548;51.196;6.838;2023-12-28T12:00:43;12.60;99.90
37702;DHT22;23548;51.196;6.838;2023-12-28T12:03:12;12.70;99.90
37702;DHT22;23548;51.196;6.838;2023-12-28T12:05:38;12.80;99.90
37702;DHT22;23548;51.196;6.838;2023-12-28T12:08:05;12.70;99.90
37702;DHT22;23548;51.196;6.838;2023-12-28T12:10:34;12.60;99.90
37702;DHT22;23548;51.196;6.838;2023-12-28T12:13:00;12.70;99.90
37702;DHT22;23548;51.196;6.838;2023-12-28T12:15:25;12.70;99.90
37702;DHT22;23548;51.196;6.838;2023-12-28T12:17:52;12.80;99.90
37702;DHT22;23548;51.196;6.838;2023-12-28T12:20:18;12.80;99.90
37702;DHT22;23548;51.196;6.838;2023-12-28T12:22:44;12.80;99.90
37702;DHT22;23548;51.196;6.838;2023-12-28T12:25:10;12.80;99.90
37702;DHT22;23548;51.196;6.838;2023-12-28T12:27:36;12.90;99.90
37702;DHT22;23548;51.196;6.838;2023-12-28T12:30:04;13.00;99.90
37702;DHT22;23548;51.196;6.838;2023-12-28T12:32:30;12.90;99.90
37702;DHT22;23548;51.196;6.838;2023-12-28T12:34:57;12.90;99.90
37702;DHT22;23548;51.196;6.838;2023-12-28T12:37:23;12.70;99.90
37702;DHT22;23548;51.196;6.838;2023-12-28T12:39:49;12.60;99.90
37702;DHT22;23548;51.196;6.838;2023-12-28T12:42:15;12.50;99.90
37702;DHT22;23548;51.196;6.838;2023-12-28T12:44:42;12.70;99.90
37702;DHT22;23548;51.196;6.838;2023-12-28T12:47:08;12.70;99.90
37702;DHT22;23548;51.196;6.838;2023-12-28T12:49:34;12.70;99.90
37702;DHT22;23548;51.196;6.838;2023-12-28T12:52:00;12.70;99.90
37702;DHT22;23548;51.196;6.838;2023-12-28T12:54:26;12.80;99.90
37702;DHT22;23548;51.196;6.838;2023-12-28T12:56:52;12.80;99.90
37702;DHT22;23548;51.196;6.838;2023-12-28T12:59:19;12.80;99.90
37702;DHT22;23548;51.196;6.838;2023-12-28T13:01:45;12.90;99.90
37702;DHT22;23548;51.196;6.838;2023-12-28T13:04:14;12.90;99.90
37702;DHT22;23548;51.196;6.838;2023-12-28T13:06:41;12.80;99.90
37702;DHT22;23548;51.196;6.838;2023-12-28T13:09:07;12.80;99.90
37702;DHT22;23548;51.196;6.838;2023-12-28T13:11:36;12.90;99.90
37702;DHT22;23548;51.196;6.838;2023-12-28T13:14:03;12.80;99.90
37702;DHT22;23548;51.196;6.838;2023-12-28T13:16:32;12.70;99.90
37702;DHT22;23548;51.196;6.838;2023-12-28T13:18:58;12.60;99.90
37702;DHT22;23548;51.196;6.838;2023-12-28T13:21:24;12.60;99.90
37702;DHT22;23548;51.196;6.838;2023-12-28T13:23:50;12.50;99.90
37702;DHT22;23548;51.196;6.838;2023-12-28T13:26:16;12.50;99.90
37702;DHT22;23548;51.196;6.838;2023-12-28T13:28:42;12.50;99.90
37702;DHT22;23548;51.196;6.838;2023-12-28T13:31:11;12.50;99.90
37702;DHT22;23548;51.196;6.838;2023-12-28T13:33:38;12.50;99.90
37702;DHT22;23548;51.196;6.838;2023-12-28T13:36:04;12.50;99.90
37702;DHT22;23548;51.196;6.838;2023-12-28T13:38:29;12.50;99.90
37702;DHT22;23548;51.196;6.838;2023-12-28T13:40:56;12.50;99.90
37702;DHT22;23548;51.196;6.838;2023-12-28T13:43:22;12.40;99.90
37702;DHT22;23548;51.196;6.838;2023-12-28T13:45:47;12.40;99.90
37702;DHT22;23548;51.196;6.838;2023-12-28T13:48:13;12.50;99.90
37702;DHT22;23548;51.196;6.838;2023-12-28T13:50:39;12.50;99.90
37702;DHT22;23548;51.196;6.838;2023-12-28T13:53:05;12.50;99.90
37702;DHT22;23548;51.196;6.838;2023-12-28T13:55:33;12.40;99.90
37702;DHT22;23548;51.196;6.838;2023-12-28T13:57:59;12.30;99.90
37702;DHT22;23548;51.196;6.838;2023-12-28T14:00:24;12.20;99.90
37702;DHT22;23548;51.196;6.838;2023-12-28T14:02:51;12.30;99.90
37702;DHT22;23548;51.196;6.838;2023-12-28T14:05:18;12.20;99.90
37702;DHT22;23548;51.196;6.838;2023-12-28T14:07:44;12.10;99.90
37702;DHT22;23548;51.196;6.838;2023-12-28T14:10:10;12.10;99.90
37702;DHT22;23548;51.196;6.838;2023-12-28T14:12:36;12.20;99.90
37702;DHT22;23548;51.196;6.838;2023-12-28T14:15:02;12.10;99.90
37702;DHT22;23548;51.196;6.838;2023-12-28T14:17:28;12.10;99.90
37702;DHT22;23548;51.196;6.838;2023-12-28T14:19:55;12.10;99.90
37702;DHT22;23548;51.196;6.838;2023-12-28T14:22:21;12.10;99.90
37702;DHT22;23548;51.196;6.838;2023-12-28T14:24:47;12.10;99.90
37702;DHT22;23548;51.196;6.838;2023-12-28T14:27:14;12.10;99.90
37702;DHT22;23548;51.196;6.838;2023-12-28T14:29:40;12.00;99.90
37702;DHT22;23548;51.196;6.838;2023-12-28T14:32:06;12.00;99.90
37702;DHT22;23548;51.196;6.838;2023-12-28T14:34:32;11.90;99.90
37702;DHT22;23548;51.196;6.838;2023-12-28T14:36:58;11.90;99.90
37702;DHT22;23548;51.196;6.838;2023-12-28T14:39:24;11.90;99.90
37702;DHT22;23548;51.196;6.838;2023-12-28T14:41:50;11.90;99.90
37702;DHT22;23548;51.196;6.838;2023-12-28T14:44:16;11.80;99.90
37702;DHT22;23548;51.196;6.838;2023-12-28T14:46:43;11.80;99.90
37702;DHT22;23548;51.196;6.838;2023-12-28T14:49:09;11.80;99.90
37702;DHT22;23548;51.196;6.838;2023-12-28T14:51:35;11.80;99.90
37702;DHT22;23548;51.196;6.838;2023-12-28T14:54:01;11.80;99.90
37702;DHT22;23548;51.196;6.838;2023-12-28T14:56:28;11.70;99.90
37702;DHT22;23548;51.196;6.838;2023-12-28T14:58:54;11.70;99.90
37702;DHT22;23548;51.196;6.838;2023-12-28T15:01:20;11.70;99.90
37702;DHT22;23548;51.196;6.838;2023-12-28T15:03:46;11.60;99.90
37702;DHT22;23548;51.196;6.838;2023-12-28T15:06:12;11.60;99.90
37702;DHT22;23548;51.196;6.838;2023-12-28T15:08:37;11.60;99.90
37702;DHT22;23548;51.196;6.838;2023-12-28T15:11:04;11.60;99.90
37702;DHT22;23548;51.196;6.838;2023-12-28T15:13:32;11.50;99.90
37702;DHT22;23548;51.196;6.838;2023-12-28T15:15:58;11.50;99.90
37702;DHT22;23548;51.196;6.838;2023-12-28T15:18:24;11.40;99.90
37702;DHT22;23548;51.196;6.838;2023-12-28T15:20:50;11.40;99.90
37702;DHT22;23548;51.196;6.838;2023-12-28T15:23:16;11.40;99.90
37702;DHT22;23548;51.196;6.838;2023-12-28T15:25:45;11.30;99.90
37702;DHT22;23548;51.196;6.838;2023-12-28T15:28:11;11.20;99.90
37702;DHT22;23548;51.196;6.838;2023-12-28T15:30:37;11.20;99.90
37702;DHT22;23548;51.196;6.838;2023-12-28T15:33:03;11.10;99.90
37702;DHT22;23548;51.196;6.838;2023-12-28T15:35:29;11.20;99.90